Lewiston, Michigan
Current Conditions -  °F | °C
As of 1:01 AM on Saturday 20 Dec 2014 (Local Time) from KGLR Reporting Station
Haze Haze  
Wind Chill:   Ceiling: 200
Heat Index:   Visibility: 1.5mi
Dew Point:   Wind: 0mph
Humidity: 96%   Direction: NA
Pressure: 30.22"   Gusts: NA
Location:  44.88°N, 84.31°W
Report Text: KGLR 200601Z AUTO 00000KT 1 1/2SM BR OVC002 M16/M16 A3022 RMK AO2 T11561161
Loading
Personal Weather Stations






























Interactive Weather Map New forecast layout! Learn more

10-Day Weather Forecast

Advertisements
Track Severe Weather on mobile